sensor_id;sensor_type;location;lat;lon;timestamp;pressure;altitude;pressure_sealevel;temperature;humidity
73105;BME280;61296;50.526;30.792;2023-03-26T00:02:48;97784.59;;;8.02;100.00
73105;BME280;61296;50.526;30.792;2023-03-26T00:18:07;97834.50;;;8.31;100.00
73105;BME280;61296;50.526;30.792;2023-03-26T00:33:27;97788.91;;;7.99;100.00
73105;BME280;61296;50.526;30.792;2023-03-26T00:48:47;97887.47;;;8.73;100.00
73105;BME280;61296;50.526;30.792;2023-03-26T01:20:07;97907.75;;;8.86;100.00
73105;BME280;61296;50.526;30.792;2023-03-26T01:35:40;97873.22;;;8.92;100.00
73105;BME280;61296;50.526;30.792;2023-03-26T01:51:05;97769.94;;;8.30;100.00
73105;BME280;61296;50.526;30.792;2023-03-26T02:06:36;97772.53;;;8.51;100.00
73105;BME280;61296;50.526;30.792;2023-03-26T02:21:58;97813.47;;;8.76;100.00
73105;BME280;61296;50.526;30.792;2023-03-26T02:37:20;97794.13;;;8.46;100.00
73105;BME280;61296;50.526;30.792;2023-03-26T02:52:45;97767.03;;;7.99;100.00
73105;BME280;61296;50.526;30.792;2023-03-26T03:08:08;97880.09;;;7.93;100.00
73105;BME280;61296;50.526;30.792;2023-03-26T03:23:31;97966.47;;;8.01;100.00
73105;BME280;61296;50.526;30.792;2023-03-26T03:39:00;97997.41;;;7.84;100.00
73105;BME280;61296;50.526;30.792;2023-03-26T03:54:20;98016.56;;;7.69;100.00
73105;BME280;61296;50.526;30.792;2023-03-26T04:09:39;97965.03;;;7.25;100.00
73105;BME280;61296;50.526;30.792;2023-03-26T04:25:06;98050.97;;;7.70;100.00
73105;BME280;61296;50.526;30.792;2023-03-26T04:40:51;97939.63;;;6.71;100.00
73105;BME280;61296;50.526;30.792;2023-03-26T04:57:11;98103.75;;;7.57;100.00
73105;BME280;61296;50.526;30.792;2023-03-26T05:12:47;97998.59;;;7.08;100.00
73105;BME280;61296;50.526;30.792;2023-03-26T05:28:10;98023.63;;;7.31;100.00
73105;BME280;61296;50.526;30.792;2023-03-26T05:43:43;98028.31;;;7.41;98.63
73105;BME280;61296;50.526;30.792;2023-03-26T05:59:06;98037.69;;;7.44;96.08
73105;BME280;61296;50.526;30.792;2023-03-26T06:14:45;98038.84;;;7.39;95.41
73105;BME280;61296;50.526;30.792;2023-03-26T06:30:16;98049.03;;;7.53;93.48
73105;BME280;61296;50.526;30.792;2023-03-26T06:45:50;98036.91;;;7.82;90.36
73105;BME280;61296;50.526;30.792;2023-03-26T07:01:29;98084.00;;;8.79;87.44
73105;BME280;61296;50.526;30.792;2023-03-26T07:17:08;98095.13;;;9.79;82.44
73105;BME280;61296;50.526;30.792;2023-03-26T07:33:08;98073.16;;;10.24;75.46
73105;BME280;61296;50.526;30.792;2023-03-26T07:48:45;98142.63;;;11.31;70.91
73105;BME280;61296;50.526;30.792;2023-03-26T08:20:50;98226.31;;;11.64;69.38
73105;BME280;61296;50.526;30.792;2023-03-26T08:36:13;98154.31;;;11.38;69.99
73105;BME280;61296;50.526;30.792;2023-03-26T09:38:52;98206.00;;;12.58;64.98
73105;BME280;61296;50.526;30.792;2023-03-26T10:10:00;98168.34;;;12.71;64.69
73105;BME280;61296;50.526;30.792;2023-03-26T10:56:44;98168.56;;;11.87;69.07
73105;BME280;61296;50.526;30.792;2023-03-26T11:28:24;98160.88;;;11.48;69.96
73105;BME280;61296;50.526;30.792;2023-03-26T11:43:56;98220.72;;;11.71;71.53
73105;BME280;61296;50.526;30.792;2023-03-26T12:15:13;98051.91;;;11.74;67.27
73105;BME280;61296;50.526;30.792;2023-03-26T12:30:34;98098.19;;;12.09;65.05
73105;BME280;61296;50.526;30.792;2023-03-26T12:45:57;98029.16;;;11.70;64.64
73105;BME280;61296;50.526;30.792;2023-03-26T13:01:28;98142.56;;;12.58;62.39
73105;BME280;61296;50.526;30.792;2023-03-26T13:49:40;98129.31;;;12.73;60.82
73105;BME280;61296;50.526;30.792;2023-03-26T16:11:57;98008.53;;;9.23;84.96
73105;BME280;61296;50.526;30.792;2023-03-26T16:27:32;98087.91;;;9.48;86.29
73105;BME280;61296;50.526;30.792;2023-03-26T17:45:35;98245.66;;;9.04;81.29
73105;BME280;61296;50.526;30.792;2023-03-26T18:01:22;98228.91;;;8.77;81.33
73105;BME280;61296;50.526;30.792;2023-03-26T18:16:44;98166.31;;;8.04;80.15
73105;BME280;61296;50.526;30.792;2023-03-26T18:47:30;98097.44;;;7.10;79.75
73105;BME280;61296;50.526;30.792;2023-03-26T19:02:55;98081.78;;;7.00;79.17
73105;BME280;61296;50.526;30.792;2023-03-26T19:18:23;98094.63;;;6.95;78.40
73105;BME280;61296;50.526;30.792;2023-03-26T19:33:43;98245.28;;;7.81;78.86
73105;BME280;61296;50.526;30.792;2023-03-26T19:49:04;98128.56;;;6.87;79.45
73105;BME280;61296;50.526;30.792;2023-03-26T20:04:23;98216.28;;;7.48;80.12
73105;BME280;61296;50.526;30.792;2023-03-26T20:19:43;98058.53;;;6.44;79.50
73105;BME280;61296;50.526;30.792;2023-03-26T20:35:35;98237.75;;;7.49;78.99
73105;BME280;61296;50.526;30.792;2023-03-26T20:51:09;98101.91;;;6.56;78.61
73105;BME280;61296;50.526;30.792;2023-03-26T21:06:31;98154.63;;;6.63;78.98
73105;BME280;61296;50.526;30.792;2023-03-26T21:37:15;98102.72;;;5.94;79.77
73105;BME280;61296;50.526;30.792;2023-03-26T21:52:38;98092.50;;;5.84;79.93
73105;BME280;61296;50.526;30.792;2023-03-26T22:08:30;98272.63;;;6.83;79.95
73105;BME280;61296;50.526;30.792;2023-03-26T22:23:51;98138.28;;;6.08;80.13
73105;BME280;61296;50.526;30.792;2023-03-26T22:39:10;98160.91;;;6.05;80.35
73105;BME280;61296;50.526;30.792;2023-03-26T22:54:30;98133.47;;;5.91;80.40
73105;BME280;61296;50.526;30.792;2023-03-26T23:09:49;98071.47;;;5.40;80.32
73105;BME280;61296;50.526;30.792;2023-03-26T23:25:10;98228.56;;;6.33;80.57
73105;BME280;61296;50.526;30.792;2023-03-26T23:40:30;98113.34;;;5.62;80.64
73105;BME280;61296;50.526;30.792;2023-03-26T23:55:51;98184.22;;;5.96;80.65
